Time;durP1;ratioP1;P1;durP2;ratioP2;P2;SDS_P1;SDS_P2;PMS_P1;PMS_P2;Temp;Humidity;BMP_temperature;BMP_pressure;BME280_temperature;BME280_humidity;BME280_pressure;Samples;Min_cycle;Max_cycle;Signal;HPM_P1;HPM_P2
2023/08/23 00:00:06;;;;;;;7.15;2.72;;;;;;;;;;4990557;28;98778;-82
2023/08/23 00:02:32;;;;;;;3.65;2.08;;;;;;;;;;4994630;28;98646;-82
2023/08/23 00:04:59;;;;;;;5.72;2.13;;;;;;;;;;4995086;28;99206;-79
2023/08/23 00:07:25;;;;;;;4.75;2.00;;;;;;;;;;4996262;28;99525;-80
2023/08/23 00:09:52;;;;;;;6.88;1.90;;;;;;;;;;4984679;28;98684;-79
2023/08/23 00:12:18;;;;;;;9.48;2.15;;;;;;;;;;4986024;28;99108;-79
2023/08/23 00:14:45;;;;;;;5.70;1.98;;;;;;;;;;4980631;28;98933;-77
2023/08/23 00:17:11;;;;;;;3.47;1.98;;;;;;;;;;4986189;28;98634;-78
2023/08/23 00:19:38;;;;;;;6.50;2.35;;;;;;;;;;4988293;28;101640;-78
2023/08/23 00:22:04;;;;;;;6.00;2.45;;;;;;;;;;4996110;28;100242;-78
2023/08/23 00:24:31;;;;;;;3.33;1.90;;;;;;;;;;4990837;28;99920;-82
2023/08/23 00:26:57;;;;;;;3.58;1.83;;;;;;;;;;4986552;28;99827;-82
2023/08/23 00:29:23;;;;;;;4.63;2.05;;;;;;;;;;4990159;28;98877;-79
2023/08/23 00:31:50;;;;;;;6.38;2.20;;;;;;;;;;4990545;28;99222;-79
2023/08/23 00:34:16;;;;;;;2.97;1.70;;;;;;;;;;4978095;28;99489;-84
2023/08/23 00:36:42;;;;;;;4.25;1.70;;;;;;;;;;4986248;28;98665;-80
2023/08/23 00:39:09;;;;;;;5.25;2.13;;;;;;;;;;4994269;28;99171;-76
2023/08/23 00:41:35;;;;;;;5.78;1.85;;;;;;;;;;4985986;28;99611;-76
2023/08/23 00:44:03;;;;;;;2.97;2.03;;;;;;;;;;4990108;28;98871;-76
2023/08/23 00:46:29;;;;;;;3.08;1.90;;;;;;;;;;4985569;28;100446;-76
2023/08/23 00:48:56;;;;;;;2.78;1.83;;;;;;;;;;4981767;28;98599;-75
2023/08/23 00:51:23;;;;;;;2.30;1.67;;;;;;;;;;4985543;28;99158;-75
2023/08/23 00:53:49;;;;;;;7.05;1.90;;;;;;;;;;4980691;28;99475;-75
2023/08/23 00:56:15;;;;;;;1.95;1.70;;;;;;;;;;4986092;28;98532;-81
2023/08/23 00:58:42;;;;;;;9.75;1.90;;;;;;;;;;4987721;28;99083;-82
2023/08/23 01:01:08;;;;;;;1.90;1.73;;;;;;;;;;4987479;28;99464;-82
2023/08/23 01:03:35;;;;;;;3.83;1.70;;;;;;;;;;4990740;28;99308;-82
2023/08/23 01:06:37;;;;;;;3.22;1.63;;;;;;;;;;4996151;28;98721;-78
2023/08/23 01:09:06;;;;;;;1.63;1.52;;;;;;;;;;4967568;28;98762;-80
2023/08/23 01:11:36;;;;;;;4.53;1.50;;;;;;;;;;4994642;28;99705;-82
2023/08/23 01:14:04;;;;;;;2.95;1.70;;;;;;;;;;4996813;28;99621;-83
2023/08/23 01:16:31;;;;;;;5.88;1.75;;;;;;;;;;4990949;28;98597;-83
2023/08/23 01:18:59;;;;;;;3.33;1.63;;;;;;;;;;4989487;28;100451;-82
2023/08/23 01:21:36;;;;;;;3.22;1.80;;;;;;;;;;4996720;28;99434;-83
2023/08/23 01:24:08;;;;;;;4.55;2.03;;;;;;;;;;4997915;28;99506;-83
2023/08/23 01:26:36;;;;;;;1.92;1.40;;;;;;;;;;4999162;28;99222;-82
2023/08/23 01:29:02;;;;;;;2.28;1.80;;;;;;;;;;5001759;28;98736;-84
2023/08/23 01:31:30;;;;;;;2.15;1.70;;;;;;;;;;4995575;28;98598;-82
2023/08/23 01:34:02;;;;;;;2.35;1.70;;;;;;;;;;4993721;28;100537;-81
2023/08/23 01:36:28;;;;;;;2.65;1.33;;;;;;;;;;4993267;28;99715;-80
2023/08/23 01:38:55;;;;;;;5.00;1.30;;;;;;;;;;4990596;28;100182;-81
2023/08/23 01:41:23;;;;;;;1.35;0.98;;;;;;;;;;5007296;28;100416;-81
2023/08/23 01:43:51;;;;;;;2.75;1.38;;;;;;;;;;5007989;28;98473;-80
2023/08/23 01:46:17;;;;;;;4.07;1.35;;;;;;;;;;4997574;28;99129;-81
2023/08/23 01:48:43;;;;;;;1.85;1.20;;;;;;;;;;4996711;28;99381;-79
2023/08/23 01:51:10;;;;;;;2.90;1.67;;;;;;;;;;4991844;28;98604;-77
2023/08/23 01:53:36;;;;;;;4.22;1.23;;;;;;;;;;4996159;28;98771;-78
2023/08/23 01:56:03;;;;;;;2.03;1.48;;;;;;;;;;4995277;28;98538;-86
2023/08/23 01:58:29;;;;;;;2.33;1.50;;;;;;;;;;4994108;28;99150;-82
2023/08/23 02:00:58;;;;;;;1.70;1.60;;;;;;;;;;4991751;28;100631;-79
2023/08/23 02:03:24;;;;;;;5.57;2.08;;;;;;;;;;5001636;28;98548;-80
2023/08/23 02:05:53;;;;;;;3.05;2.08;;;;;;;;;;4997345;28;100576;-79
2023/08/23 02:08:20;;;;;;;2.20;2.00;;;;;;;;;;5001844;28;99482;-79
2023/08/23 02:10:46;;;;;;;3.22;2.20;;;;;;;;;;4993516;28;98939;-80
2023/08/23 02:13:13;;;;;;;2.80;1.90;;;;;;;;;;5000821;28;100659;-79
2023/08/23 02:15:39;;;;;;;3.20;1.95;;;;;;;;;;4987234;28;98641;-80
2023/08/23 02:18:06;;;;;;;5.18;2.03;;;;;;;;;;4990107;28;99335;-79
2023/08/23 02:20:32;;;;;;;2.95;2.30;;;;;;;;;;4994814;28;98707;-85
2023/08/23 02:22:59;;;;;;;7.28;2.80;;;;;;;;;;4992974;28;98769;-77
2023/08/23 02:25:25;;;;;;;2.25;2.05;;;;;;;;;;4994125;28;99227;-77
2023/08/23 02:27:51;;;;;;;2.63;2.08;;;;;;;;;;5000742;28;99475;-77
2023/08/23 02:30:18;;;;;;;3.92;2.28;;;;;;;;;;4996799;28;98578;-78
2023/08/23 02:32:44;;;;;;;2.83;2.38;;;;;;;;;;4988729;28;100383;-78
2023/08/23 02:35:11;;;;;;;5.93;2.50;;;;;;;;;;4996434;28;99163;-77
2023/08/23 02:37:38;;;;;;;5.03;2.90;;;;;;;;;;4995105;28;99161;-80
2023/08/23 02:40:04;;;;;;;4.90;2.22;;;;;;;;;;4993425;28;100074;-84
2023/08/23 02:42:31;;;;;;;4.47;2.97;;;;;;;;;;4995341;28;97943;-84
2023/08/23 02:44:57;;;;;;;4.72;2.85;;;;;;;;;;4998002;28;99507;-84
2023/08/23 02:47:24;;;;;;;4.57;2.75;;;;;;;;;;4991371;28;99437;-81
2023/08/23 02:49:50;;;;;;;6.85;3.22;;;;;;;;;;4991500;28;101052;-79
2023/08/23 02:52:16;;;;;;;9.43;3.63;;;;;;;;;;4992661;28;99833;-78
2023/08/23 02:54:43;;;;;;;5.78;3.25;;;;;;;;;;4998809;28;99626;-79
2023/08/23 02:57:09;;;;;;;4.07;3.25;;;;;;;;;;4989039;28;99627;-78
2023/08/23 02:59:35;;;;;;;4.88;3.58;;;;;;;;;;4991220;28;99241;-79
2023/08/23 03:02:02;;;;;;;7.40;3.75;;;;;;;;;;4999397;28;99073;-82
2023/08/23 03:04:29;;;;;;;6.65;4.03;;;;;;;;;;4995715;28;100566;-82
2023/08/23 03:06:55;;;;;;;4.38;3.22;;;;;;;;;;5001067;28;99020;-82
2023/08/23 03:09:21;;;;;;;4.93;3.95;;;;;;;;;;4990869;28;98550;-83
2023/08/23 03:11:48;;;;;;;5.70;3.92;;;;;;;;;;4987294;28;99498;-82
2023/08/23 03:14:14;;;;;;;13.00;4.10;;;;;;;;;;4997399;28;100852;-81
2023/08/23 03:16:41;;;;;;;7.70;4.80;;;;;;;;;;4995808;28;100998;-80
2023/08/23 03:19:08;;;;;;;9.65;4.53;;;;;;;;;;4995742;28;100368;-81
2023/08/23 03:21:34;;;;;;;5.72;4.45;;;;;;;;;;4998438;28;99208;-83
2023/08/23 03:24:01;;;;;;;6.10;4.13;;;;;;;;;;4999011;28;100565;-83
2023/08/23 03:26:27;;;;;;;5.75;4.75;;;;;;;;;;4994660;28;100525;-81
2023/08/23 03:28:53;;;;;;;6.10;5.30;;;;;;;;;;5001491;28;98806;-83
2023/08/23 03:31:20;;;;;;;8.18;5.10;;;;;;;;;;4993973;28;99496;-81
2023/08/23 03:33:46;;;;;;;5.57;4.85;;;;;;;;;;5001032;28;100592;-79
2023/08/23 03:36:12;;;;;;;7.22;4.72;;;;;;;;;;4995694;28;98520;-78
2023/08/23 03:38:39;;;;;;;5.95;4.35;;;;;;;;;;4990659;28;99806;-78
2023/08/23 03:41:11;;;;;;;5.55;4.10;;;;;;;;;;4983894;28;98507;-76
2023/08/23 03:43:37;;;;;;;6.28;3.85;;;;;;;;;;4986177;28;99149;-76
2023/08/23 03:46:04;;;;;;;5.30;3.60;;;;;;;;;;4983699;28;101855;-77
2023/08/23 03:48:30;;;;;;;5.45;4.03;;;;;;;;;;5000680;28;98628;-77
2023/08/23 03:50:59;;;;;;;5.07;4.13;;;;;;;;;;4995055;28;99388;-76
2023/08/23 03:53:26;;;;;;;6.47;4.30;;;;;;;;;;4991455;28;99853;-75
2023/08/23 03:55:56;;;;;;;9.77;3.97;;;;;;;;;;4995986;28;99839;-75
2023/08/23 03:58:22;;;;;;;7.40;4.22;;;;;;;;;;4995692;28;101440;-75
2023/08/23 04:00:52;;;;;;;10.43;4.82;;;;;;;;;;4991782;28;99615;-76
2023/08/23 04:03:18;;;;;;;7.70;4.07;;;;;;;;;;4996991;28;99410;-78
2023/08/23 04:05:45;;;;;;;6.13;5.10;;;;;;;;;;4992789;28;100792;-77
2023/08/23 04:08:11;;;;;;;6.30;4.45;;;;;;;;;;4999953;28;98735;-77
2023/08/23 04:10:38;;;;;;;11.13;4.95;;;;;;;;;;4997169;28;99241;-77
2023/08/23 04:13:04;;;;;;;12.43;5.30;;;;;;;;;;4980820;28;100490;-78
2023/08/23 04:15:31;;;;;;;7.75;5.32;;;;;;;;;;4992077;28;99246;-77
2023/08/23 04:17:59;;;;;;;17.38;5.68;;;;;;;;;;4983428;28;99268;-77
2023/08/23 04:20:26;;;;;;;9.70;4.93;;;;;;;;;;4992387;28;99967;-76
2023/08/23 04:22:52;;;;;;;14.20;6.40;;;;;;;;;;4991398;28;98983;-76
2023/08/23 04:25:20;;;;;;;10.00;6.05;;;;;;;;;;4989023;28;99520;-76
2023/08/23 04:27:46;;;;;;;11.38;6.20;;;;;;;;;;4989991;28;99495;-75
2023/08/23 04:30:13;;;;;;;10.40;6.20;;;;;;;;;;4986762;28;100119;-76
2023/08/23 04:32:39;;;;;;;9.68;6.55;;;;;;;;;;4982847;28;99515;-76
2023/08/23 04:35:06;;;;;;;11.98;6.65;;;;;;;;;;4995563;28;98963;-75
2023/08/23 04:37:32;;;;;;;12.23;7.03;;;;;;;;;;4991838;28;99178;-75
2023/08/23 04:39:59;;;;;;;8.90;6.53;;;;;;;;;;4998335;28;100372;-76
2023/08/23 04:42:28;;;;;;;9.60;5.93;;;;;;;;;;5000008;28;98851;-76
2023/08/23 04:44:55;;;;;;;10.75;6.90;;;;;;;;;;4991502;28;98781;-76
2023/08/23 04:47:21;;;;;;;12.60;6.65;;;;;;;;;;4993171;28;98728;-76
2023/08/23 04:49:49;;;;;;;8.15;6.40;;;;;;;;;;4997805;28;99478;-76
2023/08/23 04:52:16;;;;;;;8.48;6.15;;;;;;;;;;4992248;28;100587;-76
2023/08/23 04:54:42;;;;;;;12.35;6.28;;;;;;;;;;4989590;28;98475;-75
2023/08/23 04:57:08;;;;;;;8.77;6.30;;;;;;;;;;4993424;28;100315;-76
2023/08/23 04:59:35;;;;;;;12.20;7.13;;;;;;;;;;4988179;28;99508;-77
2023/08/23 05:02:02;;;;;;;12.73;7.45;;;;;;;;;;4991419;28;99016;-77
2023/08/23 05:04:28;;;;;;;8.93;6.63;;;;;;;;;;4991636;28;102085;-76
2023/08/23 05:06:54;;;;;;;12.40;7.57;;;;;;;;;;4988465;28;98962;-76
2023/08/23 05:09:21;;;;;;;10.13;6.97;;;;;;;;;;4993446;28;99131;-75
2023/08/23 05:11:47;;;;;;;16.70;6.85;;;;;;;;;;4991344;28;99787;-76
2023/08/23 05:14:17;;;;;;;20.00;6.95;;;;;;;;;;4987310;28;100313;-76
2023/08/23 05:16:43;;;;;;;8.98;6.50;;;;;;;;;;4989349;28;99594;-76
2023/08/23 05:19:10;;;;;;;10.57;6.88;;;;;;;;;;4987638;28;99501;-76
2023/08/23 05:21:36;;;;;;;12.52;7.63;;;;;;;;;;4991907;28;98673;-75
2023/08/23 05:24:03;;;;;;;15.48;8.13;;;;;;;;;;4988578;28;99187;-77
2023/08/23 05:26:29;;;;;;;19.60;9.13;;;;;;;;;;4990501;28;99479;-77
2023/08/23 05:28:55;;;;;;;17.77;10.27;;;;;;;;;;4989776;28;102298;-76
2023/08/23 05:31:22;;;;;;;17.15;10.27;;;;;;;;;;4992110;28;100731;-75
2023/08/23 05:33:48;;;;;;;17.65;10.75;;;;;;;;;;4988413;28;97857;-75
2023/08/23 05:36:15;;;;;;;15.73;10.05;;;;;;;;;;4989784;28;98482;-75
2023/08/23 05:38:41;;;;;;;19.75;10.50;;;;;;;;;;4998886;28;100393;-74
2023/08/23 05:41:07;;;;;;;20.60;11.23;;;;;;;;;;4995252;28;99333;-76
2023/08/23 05:43:34;;;;;;;19.98;11.98;;;;;;;;;;4999270;28;100046;-76
2023/08/23 05:46:03;;;;;;;22.60;10.93;;;;;;;;;;4998605;28;99554;-76
2023/08/23 05:48:29;;;;;;;26.35;11.40;;;;;;;;;;4993795;28;99329;-76
2023/08/23 05:50:56;;;;;;;16.55;11.23;;;;;;;;;;4992901;28;99780;-76
2023/08/23 05:53:22;;;;;;;20.13;12.15;;;;;;;;;;4993320;28;98597;-74
2023/08/23 05:55:49;;;;;;;23.25;12.07;;;;;;;;;;5000823;28;99219;-86
2023/08/23 05:58:16;;;;;;;25.17;12.27;;;;;;;;;;4993128;28;99201;-87
2023/08/23 06:00:43;;;;;;;19.02;12.18;;;;;;;;;;4993676;28;98546;-85
2023/08/23 06:03:10;;;;;;;18.95;12.52;;;;;;;;;;4990873;28;99377;-86
2023/08/23 06:05:36;;;;;;;31.65;14.18;;;;;;;;;;4996149;28;99278;-87
2023/08/23 06:08:03;;;;;;;24.95;13.63;;;;;;;;;;4985600;28;98719;-88
2023/08/23 06:10:30;;;;;;;24.40;13.35;;;;;;;;;;4997563;28;99484;-84
2023/08/23 06:12:56;;;;;;;21.58;13.52;;;;;;;;;;4995882;28;99152;-80
2023/08/23 06:15:23;;;;;;;22.05;12.60;;;;;;;;;;4990571;28;99244;-82
2023/08/23 06:17:49;;;;;;;24.98;13.25;;;;;;;;;;4991075;28;99739;-88
2023/08/23 06:20:16;;;;;;;23.75;13.88;;;;;;;;;;4989874;28;98561;-85
2023/08/23 06:22:43;;;;;;;23.85;12.57;;;;;;;;;;4994910;28;99555;-85
2023/08/23 06:25:10;;;;;;;20.58;12.52;;;;;;;;;;4994022;28;100613;-82
2023/08/23 06:27:36;;;;;;;33.88;12.30;;;;;;;;;;4988739;28;98775;-81
2023/08/23 06:30:04;;;;;;;23.23;12.73;;;;;;;;;;4993983;28;99439;-83
2023/08/23 06:32:30;;;;;;;18.52;11.88;;;;;;;;;;4987376;28;98544;-84
2023/08/23 06:34:57;;;;;;;18.80;12.57;;;;;;;;;;4992912;28;100328;-82
2023/08/23 06:37:23;;;;;;;17.25;11.82;;;;;;;;;;4998309;28;100513;-83
2023/08/23 06:39:50;;;;;;;25.48;12.77;;;;;;;;;;4991538;28;98537;-83
2023/08/23 06:42:19;;;;;;;21.75;11.23;;;;;;;;;;4992120;28;99373;-82
2023/08/23 06:44:45;;;;;;;23.25;12.15;;;;;;;;;;4993071;28;99495;-86
2023/08/23 06:47:13;;;;;;;23.40;12.63;;;;;;;;;;4990097;28;97971;-84
2023/08/23 06:49:39;;;;;;;20.92;11.65;;;;;;;;;;4981727;28;98706;-90
2023/08/23 06:52:06;;;;;;;20.98;11.38;;;;;;;;;;4993049;28;99647;-78
2023/08/23 06:54:32;;;;;;;20.80;11.25;;;;;;;;;;4989242;28;100018;-83
2023/08/23 06:56:58;;;;;;;22.35;11.10;;;;;;;;;;4990463;28;99498;-84
2023/08/23 06:59:25;;;;;;;16.25;10.90;;;;;;;;;;4990153;28;101276;-83
2023/08/23 07:01:51;;;;;;;19.05;10.30;;;;;;;;;;4987210;28;99478;-83
2023/08/23 07:04:17;;;;;;;17.58;10.05;;;;;;;;;;4992772;28;99546;-83
2023/08/23 07:06:44;;;;;;;20.52;9.68;;;;;;;;;;4986771;28;98983;-72
2023/08/23 07:09:10;;;;;;;20.38;9.65;;;;;;;;;;4984579;28;99197;-73
2023/08/23 07:11:38;;;;;;;22.20;10.38;;;;;;;;;;4991636;28;99110;-74
2023/08/23 07:14:06;;;;;;;17.17;9.27;;;;;;;;;;4989317;28;98645;-74
2023/08/23 07:16:33;;;;;;;20.38;9.40;;;;;;;;;;4987171;28;99519;-72
2023/08/23 07:19:01;;;;;;;19.42;8.98;;;;;;;;;;4986937;28;99364;-73
2023/08/23 07:21:28;;;;;;;12.50;8.10;;;;;;;;;;4986494;28;100352;-74
2023/08/23 07:23:56;;;;;;;13.77;8.30;;;;;;;;;;4987796;28;99282;-73
2023/08/23 07:26:23;;;;;;;11.98;7.78;;;;;;;;;;4990657;28;98660;-73
2023/08/23 07:28:49;;;;;;;12.73;7.55;;;;;;;;;;4987262;28;98938;-73
2023/08/23 07:31:16;;;;;;;13.40;7.47;;;;;;;;;;4986631;28;100558;-74
2023/08/23 07:33:43;;;;;;;13.63;7.95;;;;;;;;;;4988778;28;99802;-73
2023/08/23 07:36:09;;;;;;;13.63;8.23;;;;;;;;;;4990292;28;99219;-74
2023/08/23 07:38:36;;;;;;;18.80;8.05;;;;;;;;;;4987806;28;98737;-73
2023/08/23 07:41:05;;;;;;;11.00;6.97;;;;;;;;;;4982843;28;99455;-73
2023/08/23 07:43:32;;;;;;;14.50;7.97;;;;;;;;;;4982994;28;101528;-73
2023/08/23 07:46:00;;;;;;;15.95;8.20;;;;;;;;;;4988516;28;98590;-73
2023/08/23 07:48:27;;;;;;;12.57;7.70;;;;;;;;;;4996983;28;99168;-73
2023/08/23 07:50:57;;;;;;;13.68;8.10;;;;;;;;;;4987432;28;99491;-73
2023/08/23 07:53:23;;;;;;;11.70;7.60;;;;;;;;;;4983921;28;100072;-73
2023/08/23 07:55:50;;;;;;;14.48;7.45;;;;;;;;;;4991498;28;100611;-73
2023/08/23 07:58:17;;;;;;;13.93;6.70;;;;;;;;;;4984251;28;100463;-73
2023/08/23 08:00:43;;;;;;;8.77;6.03;;;;;;;;;;4988476;28;99446;-74
2023/08/23 08:03:10;;;;;;;12.13;5.65;;;;;;;;;;4996621;28;99478;-73
2023/08/23 08:05:36;;;;;;;14.20;5.55;;;;;;;;;;4991181;28;98735;-74
2023/08/23 08:08:04;;;;;;;9.43;5.57;;;;;;;;;;4987427;28;99191;-73
2023/08/23 08:10:35;;;;;;;16.33;5.60;;;;;;;;;;4991548;28;99927;-73
2023/08/23 08:13:02;;;;;;;8.88;5.95;;;;;;;;;;4988346;28;98663;-74
2023/08/23 08:15:29;;;;;;;9.77;5.05;;;;;;;;;;4985478;28;99174;-73
2023/08/23 08:17:55;;;;;;;9.52;5.18;;;;;;;;;;4991014;28;99517;-72
2023/08/23 08:20:24;;;;;;;8.65;5.03;;;;;;;;;;4985002;28;98871;-73
2023/08/23 08:22:51;;;;;;;6.63;4.20;;;;;;;;;;4982157;28;99763;-72
2023/08/23 08:25:18;;;;;;;7.00;4.30;;;;;;;;;;4984628;28;99420;-73
2023/08/23 08:27:44;;;;;;;6.40;3.72;;;;;;;;;;4980096;28;100825;-73
2023/08/23 08:30:11;;;;;;;7.97;4.25;;;;;;;;;;4986415;28;99353;-74
2023/08/23 08:32:38;;;;;;;9.93;4.03;;;;;;;;;;4975840;28;100755;-74
2023/08/23 08:35:04;;;;;;;8.23;4.38;;;;;;;;;;4978934;28;101518;-73
2023/08/23 08:37:31;;;;;;;5.63;3.38;;;;;;;;;;4985414;28;99537;-72
2023/08/23 08:39:57;;;;;;;9.82;3.25;;;;;;;;;;4990346;28;98724;-73
2023/08/23 08:42:24;;;;;;;8.70;3.42;;;;;;;;;;4986277;28;99478;-73
2023/08/23 08:44:51;;;;;;;8.35;3.60;;;;;;;;;;4979805;28;99187;-73
2023/08/23 08:47:17;;;;;;;8.07;3.90;;;;;;;;;;4991090;28;99535;-73
2023/08/23 08:49:43;;;;;;;11.32;3.75;;;;;;;;;;4986905;28;98835;-73
2023/08/23 08:52:12;;;;;;;14.15;3.88;;;;;;;;;;4987531;28;98516;-73
2023/08/23 08:54:39;;;;;;;6.43;4.00;;;;;;;;;;4984458;28;99391;-77
2023/08/23 08:57:06;;;;;;;6.55;3.38;;;;;;;;;;4982394;28;101229;-76
2023/08/23 08:59:33;;;;;;;15.23;4.05;;;;;;;;;;4982247;28;99012;-76
2023/08/23 09:02:00;;;;;;;7.47;3.55;;;;;;;;;;4990931;28;99144;-77
2023/08/23 09:04:27;;;;;;;13.85;3.53;;;;;;;;;;4982651;28;100118;-77
2023/08/23 09:06:55;;;;;;;6.78;3.58;;;;;;;;;;4982430;28;99343;-77
2023/08/23 09:09:21;;;;;;;11.13;3.35;;;;;;;;;;4985859;28;99572;-77
2023/08/23 09:11:48;;;;;;;13.50;3.70;;;;;;;;;;4987452;28;98878;-77
2023/08/23 09:14:15;;;;;;;5.97;3.35;;;;;;;;;;4987159;28;99786;-76
2023/08/23 09:16:43;;;;;;;6.70;3.30;;;;;;;;;;4986666;28;100515;-77
2023/08/23 09:19:12;;;;;;;8.40;3.53;;;;;;;;;;4977425;28;100714;-76
2023/08/23 09:21:46;;;;;;;7.47;3.33;;;;;;;;;;4986906;28;100664;-76
2023/08/23 09:24:12;;;;;;;8.32;3.88;;;;;;;;;;4992351;28;99619;-76
2023/08/23 09:26:45;;;;;;;10.77;3.92;;;;;;;;;;4988091;28;100263;-72
2023/08/23 09:29:11;;;;;;;9.32;3.38;;;;;;;;;;4984421;28;99817;-73
2023/08/23 09:31:39;;;;;;;12.77;3.58;;;;;;;;;;4986702;28;99783;-73
2023/08/23 09:34:13;;;;;;;10.40;4.15;;;;;;;;;;4985430;28;99294;-73
2023/08/23 09:36:42;;;;;;;8.68;4.22;;;;;;;;;;4989949;28;100518;-73
2023/08/23 09:39:11;;;;;;;7.95;3.30;;;;;;;;;;4989218;28;97921;-73
2023/08/23 09:41:42;;;;;;;13.50;4.30;;;;;;;;;;4988608;28;98962;-73
2023/08/23 09:44:26;;;;;;;8.43;3.67;;;;;;;;;;4988131;28;99717;-73
2023/08/23 09:46:53;;;;;;;7.40;3.97;;;;;;;;;;4991974;28;99331;-73
2023/08/23 09:49:21;;;;;;;6.38;3.92;;;;;;;;;;4987934;28;99470;-73
2023/08/23 09:51:48;;;;;;;7.53;3.65;;;;;;;;;;4986022;28;99012;-73
2023/08/23 09:54:20;;;;;;;6.72;3.20;;;;;;;;;;4989805;28;99127;-73
2023/08/23 09:57:06;;;;;;;8.10;3.22;;;;;;;;;;4987526;28;100397;-74
2023/08/23 09:59:33;;;;;;;12.25;3.28;;;;;;;;;;4989030;28;99013;-73
2023/08/23 10:02:01;;;;;;;5.97;2.92;;;;;;;;;;4990536;28;99171;-73
2023/08/23 10:04:28;;;;;;;7.93;3.30;;;;;;;;;;4984473;28;98904;-72
2023/08/23 10:06:56;;;;;;;4.00;3.00;;;;;;;;;;4986040;28;98582;-73
2023/08/23 10:09:23;;;;;;;9.93;2.92;;;;;;;;;;4989952;28;99359;-73
2023/08/23 10:11:50;;;;;;;6.13;2.80;;;;;;;;;;4987161;28;99325;-74
2023/08/23 10:14:21;;;;;;;5.72;2.20;;;;;;;;;;4988706;28;99883;-73
2023/08/23 10:16:48;;;;;;;6.03;2.80;;;;;;;;;;4984505;28;99495;-73
2023/08/23 10:19:14;;;;;;;11.65;3.00;;;;;;;;;;4985738;28;98698;-73
2023/08/23 10:21:41;;;;;;;11.20;2.67;;;;;;;;;;4983313;28;99145;-74
2023/08/23 10:24:07;;;;;;;8.30;2.97;;;;;;;;;;4986817;28;100690;-73
2023/08/23 10:26:44;;;;;;;5.63;2.55;;;;;;;;;;4984460;28;98570;-73
2023/08/23 10:29:10;;;;;;;7.20;2.33;;;;;;;;;;4986918;28;99207;-73
2023/08/23 10:31:37;;;;;;;3.53;1.90;;;;;;;;;;4988081;28;98546;-73
2023/08/23 10:34:04;;;;;;;7.03;3.03;;;;;;;;;;4988822;28;99338;-73
2023/08/23 10:36:31;;;;;;;12.80;3.33;;;;;;;;;;4987654;28;100719;-73
2023/08/23 10:38:57;;;;;;;12.05;2.97;;;;;;;;;;4979562;28;98694;-74
2023/08/23 10:41:27;;;;;;;7.25;3.00;;;;;;;;;;4989756;28;98834;-73
2023/08/23 10:43:54;;;;;;;8.57;2.50;;;;;;;;;;4990168;28;99438;-73
2023/08/23 10:46:22;;;;;;;6.80;2.70;;;;;;;;;;4986331;28;98985;-74
2023/08/23 10:48:48;;;;;;;5.55;2.92;;;;;;;;;;4985321;28;99365;-74
2023/08/23 10:51:15;;;;;;;8.95;2.97;;;;;;;;;;4992546;28;99523;-73
2023/08/23 10:53:42;;;;;;;8.27;3.40;;;;;;;;;;4989854;28;98905;-74
2023/08/23 10:56:10;;;;;;;5.25;2.78;;;;;;;;;;4980872;28;99990;-73
2023/08/23 10:58:36;;;;;;;5.78;2.90;;;;;;;;;;4980109;28;101235;-73
2023/08/23 11:01:05;;;;;;;11.65;3.90;;;;;;;;;;4988997;28;99205;-76
2023/08/23 11:03:32;;;;;;;9.57;3.75;;;;;;;;;;4985536;28;99589;-76
2023/08/23 11:05:59;;;;;;;4.93;2.47;;;;;;;;;;4988206;28;98623;-76
2023/08/23 11:08:25;;;;;;;8.52;2.55;;;;;;;;;;4991227;28;99138;-76
2023/08/23 11:10:52;;;;;;;5.85;3.05;;;;;;;;;;4992589;28;102379;-76
2023/08/23 11:13:19;;;;;;;5.70;3.22;;;;;;;;;;4984943;28;98564;-76
2023/08/23 11:15:45;;;;;;;7.65;3.40;;;;;;;;;;4986827;28;99956;-76
2023/08/23 11:18:13;;;;;;;9.23;3.55;;;;;;;;;;4987112;28;97787;-76
2023/08/23 11:20:40;;;;;;;8.25;3.70;;;;;;;;;;4984068;28;99576;-76
2023/08/23 11:23:06;;;;;;;10.30;3.40;;;;;;;;;;4984827;28;100900;-76
2023/08/23 11:25:33;;;;;;;10.48;3.72;;;;;;;;;;4987614;28;99483;-76
2023/08/23 11:28:00;;;;;;;16.85;3.38;;;;;;;;;;4989106;28;99944;-76
2023/08/23 11:30:27;;;;;;;9.02;4.18;;;;;;;;;;4988891;28;99480;-76
2023/08/23 11:32:55;;;;;;;8.80;3.80;;;;;;;;;;4985866;28;98563;-76
2023/08/23 11:35:22;;;;;;;6.85;2.92;;;;;;;;;;4991371;28;99322;-75
2023/08/23 11:37:49;;;;;;;13.80;3.13;;;;;;;;;;4988673;28;98614;-78
2023/08/23 11:40:16;;;;;;;7.35;3.67;;;;;;;;;;4989867;28;99222;-80
2023/08/23 11:42:43;;;;;;;9.40;3.33;;;;;;;;;;4987470;28;98801;-78
2023/08/23 11:45:09;;;;;;;6.80;2.97;;;;;;;;;;4982083;28;100034;-71
2023/08/23 11:47:36;;;;;;;5.43;2.97;;;;;;;;;;4986576;28;98909;-72
2023/08/23 11:50:05;;;;;;;11.13;2.70;;;;;;;;;;4986462;28;100315;-71
2023/08/23 11:52:32;;;;;;;6.50;2.72;;;;;;;;;;4986213;28;99036;-72
2023/08/23 11:55:01;;;;;;;5.10;3.17;;;;;;;;;;4988088;28;99233;-72
2023/08/23 11:57:30;;;;;;;8.38;2.40;;;;;;;;;;4990395;28;99752;-71
2023/08/23 11:59:56;;;;;;;11.70;2.37;;;;;;;;;;4988723;28;100214;-71
2023/08/23 12:02:23;;;;;;;8.95;2.20;;;;;;;;;;4981595;28;100328;-71
2023/08/23 12:04:49;;;;;;;4.90;2.38;;;;;;;;;;4988446;28;98679;-72
2023/08/23 12:07:15;;;;;;;7.07;3.58;;;;;;;;;;4988482;28;103186;-72
2023/08/23 12:09:42;;;;;;;6.45;3.38;;;;;;;;;;4987653;28;99495;-73
2023/08/23 12:12:08;;;;;;;4.57;2.63;;;;;;;;;;4987251;28;98516;-73
2023/08/23 12:14:35;;;;;;;4.38;2.30;;;;;;;;;;4987575;28;100515;-72
2023/08/23 12:17:03;;;;;;;5.18;1.80;;;;;;;;;;4987209;28;99031;-72
2023/08/23 12:19:35;;;;;;;4.93;2.22;;;;;;;;;;4989221;28;98920;-73
2023/08/23 12:22:03;;;;;;;7.35;2.60;;;;;;;;;;4984177;28;99511;-73
2023/08/23 12:24:29;;;;;;;5.47;2.90;;;;;;;;;;4988130;28;98568;-73
2023/08/23 12:26:57;;;;;;;8.73;2.90;;;;;;;;;;4980921;28;99141;-73
2023/08/23 12:29:24;;;;;;;14.48;4.30;;;;;;;;;;4984120;28;99907;-72
2023/08/23 12:31:50;;;;;;;6.05;3.90;;;;;;;;;;4989373;28;97887;-73
2023/08/23 12:34:16;;;;;;;9.55;5.05;;;;;;;;;;4980392;28;98614;-73
2023/08/23 12:36:43;;;;;;;7.82;3.95;;;;;;;;;;4982872;28;99488;-74
2023/08/23 12:39:09;;;;;;;6.72;4.15;;;;;;;;;;4986950;28;99526;-72
2023/08/23 12:41:36;;;;;;;7.80;3.22;;;;;;;;;;4988222;28;101807;-73
2023/08/23 12:44:03;;;;;;;12.43;3.83;;;;;;;;;;4983302;28;99738;-74
2023/08/23 12:46:29;;;;;;;10.45;3.53;;;;;;;;;;4985906;28;99306;-73
2023/08/23 12:48:56;;;;;;;9.45;2.80;;;;;;;;;;4977355;28;99509;-73
2023/08/23 12:51:23;;;;;;;15.25;2.28;;;;;;;;;;4987808;28;98845;-74
2023/08/23 12:53:50;;;;;;;9.38;3.05;;;;;;;;;;4987079;28;99314;-70
2023/08/23 12:56:16;;;;;;;9.60;4.03;;;;;;;;;;4990767;28;98601;-70
2023/08/23 12:58:43;;;;;;;14.35;3.70;;;;;;;;;;4989881;28;98587;-71
2023/08/23 13:01:10;;;;;;;5.35;2.80;;;;;;;;;;4994133;28;102841;-70
2023/08/23 13:03:37;;;;;;;7.80;2.65;;;;;;;;;;4987825;28;99350;-70
2023/08/23 13:06:03;;;;;;;17.80;2.78;;;;;;;;;;4989365;28;100661;-71
2023/08/23 13:08:29;;;;;;;5.45;2.28;;;;;;;;;;4990779;28;99823;-73
2023/08/23 13:10:56;;;;;;;6.38;1.98;;;;;;;;;;4986047;28;98634;-72
2023/08/23 13:13:22;;;;;;;8.25;2.33;;;;;;;;;;4986864;28;99327;-70
2023/08/23 13:24:28;;;;;;;6.78;2.30;;;;;;;;;;5061373;27;86499;-63
2023/08/23 13:26:55;;;;;;;8.18;2.30;;;;;;;;;;5056842;27;86884;-62
2023/08/23 13:29:21;;;;;;;6.07;1.75;;;;;;;;;;5059145;27;88188;-61
2023/08/23 13:31:47;;;;;;;3.15;1.60;;;;;;;;;;5062091;27;89318;-61
2023/08/23 13:34:14;;;;;;;23.42;3.65;;;;;;;;;;5064547;27;87711;-61
2023/08/23 13:36:41;;;;;;;9.32;2.53;;;;;;;;;;5064219;27;87218;-61
2023/08/23 18:41:00;;;;;;;17.58;2.33;;;;;;;;;;5022499;27;86408;-68
2023/08/23 18:43:27;;;;;;;13.57;1.85;;;;;;;;;;5013452;27;86916;-71
2023/08/23 18:45:53;;;;;;;7.35;1.90;;;;;;;;;;5018003;27;87249;-76
2023/08/23 18:48:19;;;;;;;2.63;1.13;;;;;;;;;;5024491;27;87452;-76
2023/08/23 18:50:46;;;;;;;3.67;1.40;;;;;;;;;;5020380;27;86877;-76
2023/08/23 18:53:12;;;;;;;11.48;1.85;;;;;;;;;;5025687;27;86989;-76
2023/08/23 18:55:39;;;;;;;4.78;1.70;;;;;;;;;;5017764;27;87861;-76
2023/08/23 18:58:05;;;;;;;6.82;1.65;;;;;;;;;;5021846;27;88946;-73
2023/08/23 19:00:31;;;;;;;7.78;1.98;;;;;;;;;;5016227;27;87590;-76
2023/08/23 19:02:58;;;;;;;3.85;1.73;;;;;;;;;;5016811;27;87966;-76
2023/08/23 19:05:24;;;;;;;9.85;2.22;;;;;;;;;;5015884;27;87355;-74
2023/08/23 19:07:51;;;;;;;8.00;1.55;;;;;;;;;;5016980;27;87591;-77
2023/08/23 19:10:17;;;;;;;4.30;1.85;;;;;;;;;;5013646;27;88016;-75
2023/08/23 19:12:44;;;;;;;8.73;1.73;;;;;;;;;;5015105;27;86914;-77
2023/08/23 19:15:10;;;;;;;4.05;1.60;;;;;;;;;;5014167;27;88490;-74
2023/08/23 19:17:37;;;;;;;5.88;2.00;;;;;;;;;;5016173;27;87857;-76
2023/08/23 19:20:03;;;;;;;3.63;1.40;;;;;;;;;;5020806;27;87388;-75
2023/08/23 19:22:30;;;;;;;8.30;1.60;;;;;;;;;;5030795;28;89876;-76
2023/08/23 19:24:57;;;;;;;3.03;1.27;;;;;;;;;;5016643;27;88305;-75
2023/08/23 19:27:25;;;;;;;8.27;1.60;;;;;;;;;;5020244;27;87521;-77
2023/08/23 19:29:51;;;;;;;5.30;1.40;;;;;;;;;;5016309;27;89014;-77
2023/08/23 19:32:18;;;;;;;5.70;1.63;;;;;;;;;;5016033;27;86962;-76
2023/08/23 19:34:44;;;;;;;5.03;1.30;;;;;;;;;;5013441;27;87963;-76
2023/08/23 19:37:12;;;;;;;5.78;1.38;;;;;;;;;;5021768;27;87849;-77
2023/08/23 19:39:38;;;;;;;6.97;1.50;;;;;;;;;;5019348;27;87368;-78
2023/08/23 19:42:04;;;;;;;6.95;1.50;;;;;;;;;;5012534;27;87498;-77